Hart, Minnesota
Current Conditions -  °F | °C
As of 9:55 PM on Tuesday 21 Oct 2014 (Local Time) from KONA Reporting Station
Clear Clear  
Wind Chill: 38°   Ceiling: Unl
Heat Index: 41°   Visibility: 10mi
Dew Point: 37°   Wind: 5mph
Humidity: 87%   Direction: 150°SSE
Pressure: 30.24"   Gusts: NA
Location:  43.8851°N, 91.7705°W
Report Text: KONA 220255Z AUTO 15004KT 10SM CLR 05/03 A3024 RMK AO2
Loading
Personal Weather Stations






























Interactive Weather Map
Tropical Storm Tracking
New forecast layout! Learn more

10-Day Weather Forecast

Advertisements
Track Severe Weather on mobile